createdAt,value
2022-08-08T00:02:43.208Z,5.20
2022-08-08T00:07:55.923Z,5.30
2022-08-08T00:13:20.932Z,3.90
2022-08-08T00:19:03.245Z,3.80
2022-08-08T00:24:17.009Z,5.10
2022-08-08T00:29:45.723Z,6.30
2022-08-08T00:35:34.389Z,5.30
2022-08-08T00:41:08.077Z,5.50
2022-08-08T00:46:55.962Z,3.00
2022-08-08T00:52:28.777Z,4.40
2022-08-08T00:57:57.973Z,6.50
2022-08-08T01:04:02.513Z,4.60
2022-08-08T01:09:36.372Z,4.00
2022-08-08T01:15:03.336Z,6.00
2022-08-08T01:20:34.675Z,4.20
2022-08-08T01:26:11.482Z,5.50
2022-08-08T01:32:06.608Z,5.60
2022-08-08T01:37:58.259Z,4.50
2022-08-08T01:43:07.567Z,5.40
2022-08-08T01:48:30.451Z,4.00
2022-08-08T01:55:17.536Z,5.20
2022-08-08T01:59:17.666Z,5.40
2022-08-08T02:04:43.032Z,4.30
2022-08-08T02:10:30.058Z,5.40
2022-08-08T02:16:12.167Z,7.00
2022-08-08T02:21:48.888Z,3.90
2022-08-08T02:27:21.855Z,4.30
2022-08-08T02:32:26.350Z,5.30
2022-08-08T02:38:01.994Z,6.30
2022-08-08T02:44:38.902Z,6.60
2022-08-08T02:49:47.253Z,5.70
2022-08-08T02:55:22.959Z,6.40
2022-08-08T03:00:43.094Z,8.20
2022-08-08T03:05:56.450Z,4.90
2022-08-08T03:12:01.901Z,8.00
2022-08-08T03:17:52.102Z,7.80
2022-08-08T03:23:07.908Z,7.70
2022-08-08T03:28:21.948Z,5.00
2022-08-08T03:34:00.287Z,6.50
2022-08-08T03:38:55.960Z,6.70
2022-08-08T03:44:03.647Z,4.80
2022-08-08T03:49:56.157Z,4.60
2022-08-08T03:54:52.468Z,7.20
2022-08-08T04:00:02.521Z,10.80
2022-08-08T04:05:14.313Z,5.60
2022-08-08T04:10:22.808Z,15.90
2022-08-08T04:15:38.428Z,6.10
2022-08-08T04:20:41.996Z,5.10
2022-08-08T04:25:44.963Z,8.50
2022-08-08T04:30:49.566Z,7.40
2022-08-08T04:35:52.304Z,5.10
2022-08-08T04:40:55.604Z,7.10
2022-08-08T04:45:58.681Z,5.70
2022-08-08T04:51:01.551Z,10.80
2022-08-08T04:56:05.043Z,4.90
2022-08-08T05:01:11.110Z,4.90
2022-08-08T05:06:18.305Z,5.60
2022-08-08T05:11:28.346Z,6.10
2022-08-08T05:16:54.354Z,6.00
2022-08-08T05:21:59.985Z,5.80
2022-08-08T05:27:04.397Z,6.80
2022-08-08T05:32:09.499Z,5.90
2022-08-08T05:37:19.474Z,4.90
2022-08-08T05:42:43.472Z,5.90
2022-08-08T05:48:00.067Z,4.10
2022-08-08T05:53:54.291Z,5.40
2022-08-08T05:58:33.242Z,5.10
2022-08-08T06:03:40.447Z,3.60
2022-08-08T06:08:54.996Z,3.40
2022-08-08T06:14:07.625Z,3.80
2022-08-08T06:19:18.135Z,4.00
2022-08-08T06:24:23.216Z,3.00
2022-08-08T06:30:00.803Z,3.80
2022-08-08T06:36:03.879Z,4.70
2022-08-08T06:40:37.017Z,4.10
2022-08-08T06:45:40.756Z,4.20
2022-08-08T06:50:45.601Z,2.90
2022-08-08T06:56:01.887Z,4.40
2022-08-08T07:01:52.396Z,3.00
2022-08-08T07:06:34.183Z,3.00
2022-08-08T07:11:50.653Z,3.50
2022-08-08T07:17:09.172Z,4.90
2022-08-08T07:22:24.925Z,3.00
2022-08-08T07:27:47.313Z,3.10
2022-08-08T07:33:00.971Z,3.10
2022-08-08T07:38:18.177Z,2.90
2022-08-08T07:43:36.979Z,2.80
2022-08-08T07:48:40.832Z,4.10
2022-08-08T07:54:05.451Z,3.00
2022-08-08T07:59:14.963Z,2.30
2022-08-08T08:04:25.772Z,3.50
2022-08-08T08:09:39.261Z,2.90
2022-08-08T08:15:07.047Z,3.30
2022-08-08T08:20:11.739Z,4.90
2022-08-08T08:25:42.731Z,2.90
2022-08-08T08:30:49.710Z,3.00
2022-08-08T08:36:17.567Z,3.10
2022-08-08T08:41:20.140Z,4.10
2022-08-08T08:46:27.353Z,4.10
2022-08-08T08:51:37.855Z,4.00
2022-08-08T08:56:56.640Z,3.20
2022-08-08T09:02:02.754Z,4.40
2022-08-08T09:07:12.949Z,4.30
2022-08-08T09:12:27.405Z,3.30
2022-08-08T09:17:41.014Z,2.70
2022-08-08T09:22:58.500Z,3.50
2022-08-08T09:28:03.008Z,6.50
2022-08-08T09:33:54.873Z,2.50
2022-08-08T09:38:54.342Z,2.70
2022-08-08T09:44:15.353Z,3.70
2022-08-08T09:49:49.601Z,3.40
2022-08-08T09:54:51.911Z,4.00
2022-08-08T10:00:31.311Z,4.10
2022-08-08T10:05:31.311Z,6.30
2022-08-08T10:10:41.398Z,5.60
2022-08-08T10:15:59.195Z,4.30
2022-08-08T10:21:25.247Z,3.50
2022-08-08T10:26:51.882Z,4.80
2022-08-08T10:32:21.086Z,7.70
2022-08-08T10:37:30.961Z,3.50
2022-08-08T10:42:37.436Z,2.60
2022-08-08T10:47:53.600Z,2.60
2022-08-08T10:53:04.828Z,4.60
2022-08-08T10:58:11.672Z,3.30
2022-08-08T11:03:18.109Z,3.80
2022-08-08T11:08:41.144Z,4.10
2022-08-08T11:13:52.004Z,2.80
2022-08-08T11:19:04.949Z,4.20
2022-08-08T11:24:11.211Z,2.90
2022-08-08T11:29:17.450Z,3.90
2022-08-08T11:34:34.475Z,3.90
2022-08-08T11:45:01.925Z,4.00
2022-08-08T11:50:10.022Z,4.30
2022-08-08T11:55:28.687Z,4.70
2022-08-08T12:00:32.165Z,3.40
2022-08-08T12:05:38.898Z,2.70
2022-08-08T12:10:53.068Z,4.50
2022-08-08T12:16:13.349Z,3.70
2022-08-08T12:22:00.528Z,3.10
2022-08-08T12:26:58.773Z,4.50
2022-08-08T12:32:17.186Z,2.50
2022-08-08T12:37:40.915Z,3.30
2022-08-08T12:42:47.995Z,2.70
2022-08-08T12:48:09.782Z,3.90
2022-08-08T12:53:29.942Z,3.90
2022-08-08T12:58:55.282Z,3.40
2022-08-08T13:03:58.933Z,3.60
2022-08-08T13:09:10.431Z,3.30
2022-08-08T13:14:15.543Z,3.10
2022-08-08T13:19:24.369Z,3.00
2022-08-08T13:24:39.441Z,4.30
2022-08-08T13:30:00.334Z,3.70
2022-08-08T13:35:11.771Z,5.60
2022-08-08T13:40:28.168Z,4.50
2022-08-08T13:45:31.722Z,3.70
2022-08-08T13:50:50.774Z,3.00
2022-08-08T13:56:00.665Z,4.70
2022-08-08T14:01:19.386Z,2.80
2022-08-08T14:06:33.105Z,7.00
2022-08-08T14:11:40.520Z,3.50
2022-08-08T14:16:50.716Z,3.30
2022-08-08T14:21:59.556Z,4.50
2022-08-08T14:27:07.371Z,3.80
2022-08-08T14:32:17.851Z,2.80
2022-08-08T14:37:42.707Z,4.10
2022-08-08T14:43:01.394Z,3.80
2022-08-08T14:48:05.507Z,4.10
2022-08-08T14:53:15.442Z,3.30
2022-08-08T14:58:19.991Z,3.80
2022-08-08T15:03:23.711Z,6.20
2022-08-08T15:08:35.108Z,6.00
2022-08-08T15:14:00.551Z,4.80
2022-08-08T15:19:04.711Z,3.20
2022-08-08T15:24:08.850Z,5.20
2022-08-08T15:29:18.455Z,4.40
2022-08-08T15:34:31.464Z,6.40
2022-08-08T15:39:39.661Z,5.90
2022-08-08T15:44:42.879Z,4.40
2022-08-08T15:49:47.479Z,4.40
2022-08-08T15:54:52.951Z,5.30
2022-08-08T16:00:25.780Z,3.50
2022-08-08T16:05:23.501Z,4.10
2022-08-08T16:13:09.903Z,3.30
2022-08-08T16:15:57.697Z,4.20
2022-08-08T16:21:20.617Z,5.10
2022-08-08T16:26:34.036Z,3.30
2022-08-08T16:31:48.508Z,6.20
2022-08-08T16:36:53.403Z,3.40
2022-08-08T16:42:01.197Z,5.30
2022-08-08T16:47:41.340Z,4.50
2022-08-08T16:55:02.596Z,4.40
2022-08-08T16:58:17.760Z,5.90
2022-08-08T17:03:24.812Z,3.80
2022-08-08T17:08:46.199Z,5.40
2022-08-08T17:14:01.699Z,4.20
2022-08-08T17:19:05.731Z,4.60
2022-08-08T17:24:26.911Z,4.20
2022-08-08T17:29:33.954Z,4.10
2022-08-08T17:34:54.663Z,3.60
2022-08-08T17:40:13.226Z,4.10
2022-08-08T17:45:22.288Z,4.20
2022-08-08T17:50:28.361Z,4.60
2022-08-08T17:56:07.012Z,4.30
2022-08-08T18:00:57.500Z,4.20
2022-08-08T18:06:03.088Z,4.20
2022-08-08T18:11:25.420Z,8.10
2022-08-08T18:16:33.064Z,7.00
2022-08-08T18:22:01.285Z,5.30
2022-08-08T18:27:06.231Z,4.50
2022-08-08T18:32:20.646Z,4.60
2022-08-08T18:37:33.973Z,4.70
2022-08-08T18:42:38.532Z,3.60
2022-08-08T18:47:52.517Z,4.00
2022-08-08T18:52:57.857Z,6.40
2022-08-08T18:58:01.989Z,2.30
2022-08-08T19:03:06.412Z,3.70
2022-08-08T19:08:24.640Z,4.30
2022-08-08T19:13:53.173Z,5.60
2022-08-08T19:19:02.410Z,4.60
2022-08-08T19:24:08.565Z,5.30
2022-08-08T19:29:22.260Z,6.10
2022-08-08T19:34:36.379Z,14.10
2022-08-08T19:39:45.502Z,5.00
2022-08-08T19:44:50.444Z,6.50
2022-08-08T19:49:59.789Z,7.30
2022-08-08T19:55:09.596Z,5.30
2022-08-08T20:00:29.345Z,4.10
2022-08-08T20:06:14.475Z,5.60
2022-08-08T20:11:03.070Z,3.20
2022-08-08T20:16:06.760Z,6.20
2022-08-08T20:21:10.807Z,4.40
2022-08-08T20:26:15.375Z,7.70
2022-08-08T20:31:19.023Z,5.50
2022-08-08T20:36:22.533Z,3.60
2022-08-08T20:41:27.834Z,3.80
2022-08-08T20:46:31.740Z,6.90
2022-08-08T20:51:36.594Z,4.80
2022-08-08T20:57:04.651Z,5.70
2022-08-08T21:02:09.092Z,5.10
2022-08-08T21:07:17.920Z,6.10
2022-08-08T21:12:45.908Z,4.90
2022-08-08T21:17:56.022Z,7.40
2022-08-08T21:22:59.647Z,5.60
2022-08-08T21:28:09.567Z,6.40
2022-08-08T21:33:21.210Z,5.70
2022-08-08T21:38:25.346Z,7.70
2022-08-08T21:43:32.869Z,5.70
2022-08-08T21:48:44.373Z,7.00
2022-08-08T21:54:33.709Z,7.20
2022-08-08T21:59:16.282Z,7.10
2022-08-08T22:04:24.563Z,7.10
2022-08-08T22:09:37.378Z,4.80
2022-08-08T22:14:50.251Z,6.40
2022-08-08T22:20:12.595Z,6.90
2022-08-08T22:25:25.309Z,6.90
2022-08-08T22:30:30.594Z,5.90
2022-08-08T22:36:05.695Z,5.60
2022-08-08T22:40:57.320Z,6.60
2022-08-08T22:46:00.992Z,4.60
2022-08-08T22:51:06.803Z,6.50
2022-08-08T22:56:10.687Z,6.10
2022-08-08T23:01:26.739Z,10.10
2022-08-08T23:06:37.892Z,7.40
2022-08-08T23:12:28.252Z,7.70
2022-08-08T23:17:05.315Z,12.30
2022-08-08T23:22:09.299Z,17.10
2022-08-08T23:27:17.228Z,20.10
2022-08-08T23:32:44.222Z,13.40
2022-08-08T23:38:03.145Z,14.90
2022-08-08T23:43:07.200Z,9.30
2022-08-08T23:49:02.871Z,11.10
2022-08-08T23:54:04.974Z,11.30
2022-08-08T23:58:58.060Z,11.60
